Time;durP1;ratioP1;P1;durP2;ratioP2;P2;SDS_P1;SDS_P2;PMS_P1;PMS_P2;Temp;Humidity;BMP_temperature;BMP_pressure;BME280_temperature;BME280_humidity;BME280_pressure;Samples;Min_cycle;Max_cycle;Signal;HPM_P1;HPM_P2
2023/03/22 00:02:03;;;;;;;;;;;;;;;20.28;54.06;100515.74;2317942;76;51182;-73
2023/03/22 00:05:05;;;;;;;;;;;;;;;20.27;54.20;100518.09;2317930;76;50411;-74
2023/03/22 00:08:07;;;;;;;;;;;;;;;20.30;54.31;100519.07;2347637;76;50342;-74
2023/03/22 00:11:10;;;;;;;;;;;;;;;20.38;54.14;100518.38;2347387;76;51436;-73
2023/03/22 00:14:12;;;;;;;;;;;;;;;20.45;53.94;100511.72;2317655;76;50655;-73
2023/03/22 00:17:13;;;;;;;;;;;;;;;20.48;53.81;100514.52;2317871;76;50636;-73
2023/03/22 00:20:16;;;;;;;;;;;;;;;20.47;53.82;100510.16;2318390;76;51426;-74
2023/03/22 00:23:17;;;;;;;;;;;;;;;20.46;53.85;100509.33;2318450;76;50810;-73
2023/03/22 00:26:19;;;;;;;;;;;;;;;20.44;53.84;100512.20;2348660;74;50614;-74
2023/03/22 00:29:22;;;;;;;;;;;;;;;20.42;53.88;100501.34;2305997;76;51553;-73
2023/03/22 00:32:24;;;;;;;;;;;;;;;20.39;53.91;100505.25;2319132;76;50311;-73
2023/03/22 00:35:26;;;;;;;;;;;;;;;20.38;53.94;100498.75;2324158;75;50239;-73
2023/03/22 00:38:35;;;;;;;;;;;;;;;20.36;54.00;100498.11;2260065;77;51376;-73
2023/03/22 00:41:33;;;;;;;;;;;;;;;20.37;54.13;100497.92;2282175;77;22373;-74
2023/03/22 00:44:35;;;;;;;;;;;;;;;20.44;53.96;100492.05;2311903;77;50619;-74
2023/03/22 00:47:37;;;;;;;;;;;;;;;20.41;53.93;100480.36;2311972;77;50275;-74
2023/03/22 00:50:39;;;;;;;;;;;;;;;20.42;53.93;100482.03;2280747;77;50896;-74
2023/03/22 00:53:41;;;;;;;;;;;;;;;20.41;53.95;100493.80;2280987;77;50697;-74
2023/03/22 00:56:48;;;;;;;;;;;;;;;20.38;53.97;100483.45;2312244;77;49944;-74
2023/03/22 00:59:52;;;;;;;;;;;;;;;20.36;54.02;100485.50;2312577;75;21834;-73
2023/03/22 01:02:53;;;;;;;;;;;;;;;20.35;54.05;100491.09;2312081;76;22329;-74
2023/03/22 01:05:54;;;;;;;;;;;;;;;20.32;54.08;100484.74;2290726;76;50333;-73
2023/03/22 01:08:56;;;;;;;;;;;;;;;20.32;54.26;100490.97;2311863;76;50723;-73
2023/03/22 01:11:57;;;;;;;;;;;;;;;20.39;54.19;100487.78;2311963;77;51364;-74
2023/03/22 01:14:59;;;;;;;;;;;;;;;20.43;54.05;100481.52;2255474;77;52452;-74
2023/03/22 01:18:00;;;;;;;;;;;;;;;20.42;54.03;100476.66;2280842;77;51544;-74
2023/03/22 01:21:02;;;;;;;;;;;;;;;20.43;53.97;100469.42;2311956;77;51330;-74
2023/03/22 01:24:04;;;;;;;;;;;;;;;20.42;53.95;100474.47;2311682;77;50316;-73
2023/03/22 01:27:06;;;;;;;;;;;;;;;20.40;54.00;100469.83;2280631;77;52444;-73
2023/03/22 01:30:08;;;;;;;;;;;;;;;20.38;54.04;100463.81;2280870;77;50309;-73
2023/03/22 01:33:09;;;;;;;;;;;;;;;20.35;54.07;100470.94;2311149;77;50218;-73
2023/03/22 01:36:11;;;;;;;;;;;;;;;20.32;54.09;100468.13;2322538;76;50007;-73
2023/03/22 01:39:13;;;;;;;;;;;;;;;20.33;54.22;100454.17;2267831;77;51300;-73
2023/03/22 01:42:15;;;;;;;;;;;;;;;20.40;54.09;100455.88;2275682;78;51453;-73
2023/03/22 01:45:27;;;;;;;;;;;;;;;20.40;54.01;100440.27;2275207;78;51527;-73
2023/03/22 01:48:35;;;;;;;;;;;;;;;20.40;53.98;100451.02;2275684;77;50360;-74
2023/03/22 01:51:34;;;;;;;;;;;;;;;20.39;53.96;100434.56;2274746;78;22348;-75
2023/03/22 01:54:41;;;;;;;;;;;;;;;20.38;54.02;100438.28;2275224;78;50349;-73
2023/03/22 01:57:43;;;;;;;;;;;;;;;20.35;54.04;100435.48;2275530;78;50348;-73
2023/03/22 02:00:45;;;;;;;;;;;;;;;20.33;54.05;100439.41;2270241;77;51432;-73
2023/03/22 02:03:48;;;;;;;;;;;;;;;20.30;54.08;100429.05;2283148;76;51063;-74
2023/03/22 02:06:53;;;;;;;;;;;;;;;20.29;54.28;100428.72;2324181;76;51433;-73
2023/03/22 02:09:54;;;;;;;;;;;;;;;20.33;54.36;100431.34;2311828;76;50635;-74
2023/03/22 02:13:06;;;;;;;;;;;;;;;20.40;54.14;100426.31;2313131;77;50277;-73
2023/03/22 02:16:22;;;;;;;;;;;;;;;20.41;54.01;100420.41;2312577;77;51397;-73
2023/03/22 02:19:44;;;;;;;;;;;;;;;20.41;53.97;100423.09;2312073;77;50330;-73
2023/03/22 02:22:57;;;;;;;;;;;;;;;20.42;53.92;100427.44;2312529;76;22424;-74
2023/03/22 02:26:03;;;;;;;;;;;;;;;20.40;53.95;100421.45;2311823;77;50357;-73
2023/03/22 02:29:11;;;;;;;;;;;;;;;20.38;54.00;100426.20;2281432;77;51193;-73
2023/03/22 02:32:30;;;;;;;;;;;;;;;20.34;54.06;100423.58;2312552;75;22883;-74
2023/03/22 02:35:49;;;;;;;;;;;;;;;20.30;54.11;100421.00;2319113;76;50672;-73
2023/03/22 02:39:09;;;;;;;;;;;;;;;20.29;54.25;100418.80;2275795;78;51533;-74
2023/03/22 02:42:22;;;;;;;;;;;;;;;20.36;54.22;100417.50;2270162;78;50918;-74
2023/03/22 02:45:28;;;;;;;;;;;;;;;20.46;54.05;100416.61;2275400;77;50304;-74
2023/03/22 02:48:31;;;;;;;;;;;;;;;20.46;53.94;100415.27;2275455;77;50296;-74
2023/03/22 02:51:38;;;;;;;;;;;;;;;20.46;53.96;100404.52;2275607;78;51568;-72
2023/03/22 02:54:41;;;;;;;;;;;;;;;20.44;53.96;100410.08;2244486;78;51208;-74
2023/03/22 02:57:46;;;;;;;;;;;;;;;20.43;53.98;100417.02;2275587;78;50452;-74
2023/03/22 03:00:49;;;;;;;;;;;;;;;20.40;54.05;100404.81;2275534;77;50306;-73
2023/03/22 03:03:53;;;;;;;;;;;;;;;20.40;54.05;100408.02;2288917;77;50771;-73
2023/03/22 03:06:57;;;;;;;;;;;;;;;20.36;54.09;100404.88;2269582;77;51219;-74
2023/03/22 03:09:58;;;;;;;;;;;;;;;20.34;54.19;100410.14;2314005;77;51491;-74
2023/03/22 03:13:00;;;;;;;;;;;;;;;20.37;54.24;100398.98;2313861;77;51524;-74
2023/03/22 03:16:02;;;;;;;;;;;;;;;20.40;54.10;100390.03;2313611;77;50244;-74
2023/03/22 03:19:08;;;;;;;;;;;;;;;20.38;54.13;100393.42;2282398;77;52577;-74
2023/03/22 03:22:18;;;;;;;;;;;;;;;20.38;54.13;100390.73;2313796;77;51478;-74
2023/03/22 03:25:24;;;;;;;;;;;;;;;20.36;54.16;100390.11;2298773;76;50686;-74
2023/03/22 03:28:36;;;;;;;;;;;;;;;20.35;54.20;100395.70;2315995;76;50301;-74
2023/03/22 03:31:34;;;;;;;;;;;;;;;20.33;54.23;100408.50;2310826;75;22320;-73
2023/03/22 03:34:37;;;;;;;;;;;;;;;20.30;54.26;100408.91;2311714;77;51457;-74
2023/03/22 03:37:41;;;;;;;;;;;;;;;20.27;54.37;100416.85;2310941;77;51441;-74
2023/03/22 03:40:47;;;;;;;;;;;;;;;20.30;54.45;100418.31;2312178;77;50655;-74
2023/03/22 03:43:48;;;;;;;;;;;;;;;20.38;54.29;100418.13;2280586;77;51937;-74
2023/03/22 03:46:50;;;;;;;;;;;;;;;20.40;54.21;100414.73;2312002;77;51408;-74
2023/03/22 03:49:51;;;;;;;;;;;;;;;20.39;54.23;100409.03;2312125;77;50319;-73
2023/03/22 03:52:53;;;;;;;;;;;;;;;20.38;54.22;100411.41;2311982;77;50658;-74
2023/03/22 03:55:55;;;;;;;;;;;;;;;20.36;54.21;100402.20;2279554;76;49611;-74
2023/03/22 03:58:57;;;;;;;;;;;;;;;20.34;54.22;100406.11;2318016;76;50659;-73
2023/03/22 04:01:59;;;;;;;;;;;;;;;20.31;54.26;100401.97;2347546;75;50296;-73
2023/03/22 04:05:00;;;;;;;;;;;;;;;20.29;54.26;100404.54;2315685;75;51522;-73
2023/03/22 04:08:02;;;;;;;;;;;;;;;20.28;54.44;100400.21;2268124;76;52404;-73
2023/03/22 04:11:04;;;;;;;;;;;;;;;20.32;54.47;100398.27;2312261;77;50293;-73
2023/03/22 04:14:05;;;;;;;;;;;;;;;20.40;54.27;100397.27;2311931;77;51398;-73
2023/03/22 04:17:07;;;;;;;;;;;;;;;20.41;54.19;100400.25;2312113;77;51503;-74
2023/03/22 04:20:09;;;;;;;;;;;;;;;20.39;54.14;100395.07;2312412;77;50714;-74
2023/03/22 04:23:11;;;;;;;;;;;;;;;20.40;54.11;100405.33;2311886;77;50474;-74
2023/03/22 04:26:12;;;;;;;;;;;;;;;20.37;54.10;100403.02;2312151;77;50232;-74
2023/03/22 04:29:14;;;;;;;;;;;;;;;20.35;54.09;100411.82;2317968;75;51504;-74
2023/03/22 04:32:17;;;;;;;;;;;;;;;20.33;54.12;100400.44;2317898;75;50770;-73
2023/03/22 04:35:19;;;;;;;;;;;;;;;20.31;54.17;100402.48;2311985;77;51508;-74
2023/03/22 04:38:21;;;;;;;;;;;;;;;20.29;54.29;100400.52;2312810;77;50328;-73
2023/03/22 04:41:23;;;;;;;;;;;;;;;20.34;54.38;100404.77;2312076;77;51491;-72
2023/03/22 04:44:24;;;;;;;;;;;;;;;20.42;54.18;100405.93;2255975;77;51678;-74
2023/03/22 04:47:26;;;;;;;;;;;;;;;20.41;54.13;100401.08;2280775;77;50639;-72
2023/03/22 04:50:27;;;;;;;;;;;;;;;20.42;54.11;100402.75;2280856;77;51386;-72
2023/03/22 04:53:29;;;;;;;;;;;;;;;20.41;54.09;100398.91;2280511;77;51411;-73
2023/03/22 04:56:31;;;;;;;;;;;;;;;20.40;54.13;100399.95;2280551;77;51662;-70
2023/03/22 04:59:32;;;;;;;;;;;;;;;20.37;54.11;100390.92;2321045;76;51389;-70
2023/03/22 05:02:36;;;;;;;;;;;;;;;20.34;54.15;100391.33;2314192;76;50753;-71
2023/03/22 05:05:38;;;;;;;;;;;;;;;20.31;54.10;100383.16;2311980;77;22783;-70
2023/03/22 05:08:40;;;;;;;;;;;;;;;20.29;54.17;100383.05;2256337;77;51679;-70
2023/03/22 05:11:41;;;;;;;;;;;;;;;20.32;54.13;100378.61;2280743;77;51434;-71
2023/03/22 05:14:43;;;;;;;;;;;;;;;20.35;54.05;100373.68;2311644;77;51450;-72
2023/03/22 05:17:44;;;;;;;;;;;;;;;20.38;53.94;100371.11;2311890;77;52164;-71
2023/03/22 05:20:46;;;;;;;;;;;;;;;20.38;53.92;100361.70;2280696;77;52503;-73
2023/03/22 05:23:48;;;;;;;;;;;;;;;20.38;53.83;100369.77;2282735;77;50716;-73
2023/03/22 05:26:52;;;;;;;;;;;;;;;20.35;53.84;100359.42;2313791;77;51478;-75
2023/03/22 05:29:53;;;;;;;;;;;;;;;20.35;53.82;100363.45;2284309;76;22512;-74
2023/03/22 05:32:59;;;;;;;;;;;;;;;20.32;53.85;100370.06;2317704;76;50936;-73
2023/03/22 05:36:00;;;;;;;;;;;;;;;20.30;53.91;100376.14;2347373;76;50675;-74
2023/03/22 05:39:02;;;;;;;;;;;;;;;20.27;53.96;100374.35;2318234;76;50944;-73
2023/03/22 05:42:04;;;;;;;;;;;;;;;20.30;54.01;100376.66;2347724;76;51518;-73
2023/03/22 05:45:06;;;;;;;;;;;;;;;20.36;53.83;100373.98;2317670;76;52326;-71
2023/03/22 05:48:08;;;;;;;;;;;;;;;20.38;53.74;100365.20;2318075;76;49942;-70
2023/03/22 05:51:12;;;;;;;;;;;;;;;20.39;53.69;100368.20;2347671;75;51426;-72
2023/03/22 05:54:14;;;;;;;;;;;;;;;20.37;53.70;100362.22;2318225;76;51486;-72
2023/03/22 05:57:16;;;;;;;;;;;;;;;20.37;53.71;100366.74;2317873;76;52495;-73
2023/03/22 06:00:18;;;;;;;;;;;;;;;20.33;53.76;100364.16;2329238;74;50252;-73
2023/03/22 06:03:20;;;;;;;;;;;;;;;20.31;53.79;100364.35;2280794;77;50174;-71
2023/03/22 06:06:22;;;;;;;;;;;;;;;20.29;53.81;100360.21;2312268;77;50313;-73
2023/03/22 06:09:24;;;;;;;;;;;;;;;20.27;53.85;100360.92;2280874;77;51104;-71
2023/03/22 06:12:26;;;;;;;;;;;;;;;20.31;53.87;100358.16;2281297;77;50286;-72
2023/03/22 06:15:27;;;;;;;;;;;;;;;20.35;53.73;100354.88;2280747;77;50699;-72
2023/03/22 06:18:29;;;;;;;;;;;;;;;20.34;53.72;100361.78;2281681;77;50670;-72
2023/03/22 06:21:31;;;;;;;;;;;;;;;20.35;53.68;100360.25;2281443;77;52325;-71
2023/03/22 06:24:33;;;;;;;;;;;;;;;20.33;53.64;100360.13;2281146;77;50633;-73
2023/03/22 06:27:34;;;;;;;;;;;;;;;20.31;53.68;100358.98;2312561;77;50427;-73
2023/03/22 06:30:36;;;;;;;;;;;;;;;20.30;53.70;100365.91;2292127;76;50009;-73
2023/03/22 06:33:38;;;;;;;;;;;;;;;20.27;53.73;100359.58;2318176;76;50198;-72
2023/03/22 06:36:41;;;;;;;;;;;;;;;20.24;53.76;100363.49;2347844;76;51264;-75
2023/03/22 06:39:42;;;;;;;;;;;;;;;20.26;53.82;100357.93;2348114;74;51483;-74
2023/03/22 06:42:44;;;;;;;;;;;;;;;20.34;53.83;100363.13;2348400;76;49998;-73
2023/03/22 06:45:46;;;;;;;;;;;;;;;20.41;53.66;100362.63;2292658;76;51069;-72
2023/03/22 06:48:48;;;;;;;;;;;;;;;20.41;53.67;100369.35;2347897;75;51561;-74
2023/03/22 06:51:49;;;;;;;;;;;;;;;20.40;53.68;100365.02;2346908;74;51507;-73
2023/03/22 06:54:51;;;;;;;;;;;;;;;20.41;53.73;100372.04;2317805;76;51381;-73
2023/03/22 06:57:52;;;;;;;;;;;;;;;20.39;53.77;100371.41;2316157;76;51163;-74
2023/03/22 07:00:57;;;;;;;;;;;;;;;20.35;53.85;100372.86;2293641;77;50288;-74
2023/03/22 07:03:59;;;;;;;;;;;;;;;20.34;53.91;100367.16;2312095;77;50285;-74
2023/03/22 07:07:00;;;;;;;;;;;;;;;20.33;53.93;100377.59;2302581;76;51570;-73
2023/03/22 07:10:02;;;;;;;;;;;;;;;20.30;53.98;100368.60;2283759;76;51117;-74
2023/03/22 07:13:04;;;;;;;;;;;;;;;20.28;54.03;100376.85;2317732;76;51457;-73
2023/03/22 07:16:06;;;;;;;;;;;;;;;20.26;54.08;100372.70;2347278;76;51508;-74
2023/03/22 07:19:08;;;;;;;;;;;;;;;20.23;54.18;100371.25;2317841;76;51674;-74
2023/03/22 07:22:09;;;;;;;;;;;;;;;20.19;54.22;100369.49;2317767;76;49527;-73
2023/03/22 07:25:11;;;;;;;;;;;;;;;20.15;54.27;100378.97;2347173;76;50245;-74
2023/03/22 07:28:12;;;;;;;;;;;;;;;20.13;54.34;100374.30;2347298;74;50624;-74
2023/03/22 07:31:14;;;;;;;;;;;;;;;20.12;54.38;100371.31;2347497;75;50288;-74
2023/03/22 07:34:16;;;;;;;;;;;;;;;20.10;54.42;100372.02;2347175;74;50264;-74
2023/03/22 07:37:17;;;;;;;;;;;;;;;20.09;54.35;100367.69;2327502;76;50247;-73
2023/03/22 07:40:19;;;;;;;;;;;;;;;20.09;54.33;100359.63;2286387;76;49869;-73
2023/03/22 07:43:20;;;;;;;;;;;;;;;20.09;54.29;100360.98;2311818;77;50220;-73
2023/03/22 07:46:22;;;;;;;;;;;;;;;20.06;54.43;100365.90;2280745;77;52326;-73
2023/03/22 07:49:24;;;;;;;;;;;;;;;20.02;54.57;100361.45;2280633;77;50232;-73
2023/03/22 07:52:25;;;;;;;;;;;;;;;20.03;54.52;100363.09;2311920;77;50324;-73
2023/03/22 07:55:27;;;;;;;;;;;;;;;20.02;54.45;100354.73;2280636;77;51454;-74
2023/03/22 07:58:29;;;;;;;;;;;;;;;19.98;54.61;100355.63;2255906;77;50976;-73
2023/03/22 08:01:30;;;;;;;;;;;;;;;20.00;54.58;100351.42;2281008;77;51532;-74
2023/03/22 08:04:33;;;;;;;;;;;;;;;20.01;54.51;100353.06;2280375;77;50625;-72
2023/03/22 08:07:34;;;;;;;;;;;;;;;20.00;54.57;100358.13;2321887;76;51257;-74
2023/03/22 08:10:36;;;;;;;;;;;;;;;19.99;54.51;100351.11;2257813;77;52341;-74
2023/03/22 08:13:38;;;;;;;;;;;;;;;19.99;54.56;100340.38;2280834;77;51509;-74
2023/03/22 08:16:42;;;;;;;;;;;;;;;19.94;54.73;100344.17;2312163;77;50294;-74
2023/03/22 08:19:43;;;;;;;;;;;;;;;19.98;54.73;100330.64;2281615;76;22365;-74
2023/03/22 08:22:45;;;;;;;;;;;;;;;19.93;54.85;100340.63;2281307;76;51344;-74
2023/03/22 08:25:46;;;;;;;;;;;;;;;19.95;54.82;100337.76;2347139;76;51495;-73
2023/03/22 08:28:48;;;;;;;;;;;;;;;19.97;54.72;100336.53;2348244;75;51538;-73
2023/03/22 08:31:50;;;;;;;;;;;;;;;19.97;54.81;100334.37;2322783;76;51500;-73
2023/03/22 08:34:51;;;;;;;;;;;;;;;20.00;54.75;100327.25;2255760;77;51106;-73
2023/03/22 08:37:54;;;;;;;;;;;;;;;19.97;54.76;100330.34;2311938;77;50239;-74
2023/03/22 08:40:55;;;;;;;;;;;;;;;19.98;54.77;100324.75;2316746;76;51549;-73
2023/03/22 08:43:57;;;;;;;;;;;;;;;19.98;54.81;100321.24;2347262;75;50725;-73
2023/03/22 08:46:59;;;;;;;;;;;;;;;19.98;54.79;100319.90;2347392;76;51475;-73
2023/03/22 08:50:01;;;;;;;;;;;;;;;19.97;54.81;100318.25;2318094;76;51468;-74
2023/03/22 08:53:02;;;;;;;;;;;;;;;19.97;54.80;100315.05;2347249;75;50245;-74
2023/03/22 08:56:04;;;;;;;;;;;;;;;19.98;54.81;100318.55;2347256;74;50623;-74
2023/03/22 08:59:06;;;;;;;;;;;;;;;19.95;54.87;100311.73;2305871;76;51135;-73
2023/03/22 09:02:08;;;;;;;;;;;;;;;19.96;54.85;100309.86;2322354;76;50767;-74
2023/03/22 09:05:10;;;;;;;;;;;;;;;19.94;54.85;100299.86;2280489;77;50107;-73
2023/03/22 09:08:11;;;;;;;;;;;;;;;19.93;54.87;100292.30;2311953;77;50407;-74
2023/03/22 09:11:13;;;;;;;;;;;;;;;19.94;54.88;100294.49;2286740;76;51105;-73
2023/03/22 09:14:14;;;;;;;;;;;;;;;19.94;54.87;100290.47;2317535;76;50284;-74
2023/03/22 09:17:17;;;;;;;;;;;;;;;19.94;54.86;100285.09;2347131;76;50381;-73
2023/03/22 09:20:24;;;;;;;;;;;;;;;19.95;54.84;100282.71;2347313;76;50781;-73
2023/03/22 09:23:22;;;;;;;;;;;;;;;19.94;54.86;100274.36;2317900;76;23381;-73
2023/03/22 09:26:24;;;;;;;;;;;;;;;19.94;54.90;100281.06;2347378;76;50118;-73
2023/03/22 09:29:26;;;;;;;;;;;;;;;19.95;55.00;100274.66;2331728;74;50447;-74
2023/03/22 09:32:27;;;;;;;;;;;;;;;19.96;54.92;100270.92;2312997;76;50065;-73
2023/03/22 09:35:29;;;;;;;;;;;;;;;19.94;54.93;100273.02;2317510;76;49407;-73
2023/03/22 09:38:32;;;;;;;;;;;;;;;19.93;54.94;100261.94;2317758;76;52392;-73
2023/03/22 09:41:35;;;;;;;;;;;;;;;19.92;54.99;100265.14;2310370;76;50676;-73
2023/03/22 09:44:40;;;;;;;;;;;;;;;19.90;54.97;100265.85;2311759;77;50915;-74
2023/03/22 09:47:46;;;;;;;;;;;;;;;19.91;55.03;100270.22;2280451;77;52448;-74
2023/03/22 09:50:49;;;;;;;;;;;;;;;19.91;55.00;100270.70;2312008;77;50248;-74
2023/03/22 09:53:50;;;;;;;;;;;;;;;19.90;54.99;100271.22;2311588;77;52167;-73
2023/03/22 09:56:53;;;;;;;;;;;;;;;19.91;54.97;100266.67;2311801;77;52454;-73
2023/03/22 10:00:15;;;;;;;;;;;;;;;19.90;54.96;100271.22;2308887;76;51450;-73
2023/03/22 10:03:18;;;;;;;;;;;;;;;19.90;54.96;100265.03;2315011;76;50363;-73
2023/03/22 10:06:23;;;;;;;;;;;;;;;19.92;54.91;100259.77;2312097;75;50272;-73
2023/03/22 10:09:29;;;;;;;;;;;;;;;19.90;54.94;100265.03;2331576;75;51510;-74
2023/03/22 10:12:32;;;;;;;;;;;;;;;19.90;54.88;100259.66;2317589;76;50268;-73
2023/03/22 10:15:37;;;;;;;;;;;;;;;19.89;54.94;100260.18;2347006;76;50655;-73
2023/03/22 10:18:42;;;;;;;;;;;;;;;19.89;54.94;100260.70;2347179;76;50276;-73
2023/03/22 10:21:44;;;;;;;;;;;;;;;19.89;54.94;100249.96;2346656;76;50681;-73
2023/03/22 10:24:46;;;;;;;;;;;;;;;19.90;54.90;100252.95;2317584;76;51251;-74
2023/03/22 10:27:48;;;;;;;;;;;;;;;19.91;54.87;100254.59;2347370;76;50038;-74
2023/03/22 10:30:52;;;;;;;;;;;;;;;19.89;54.89;100239.22;2347379;76;51484;-73
2023/03/22 10:34:14;;;;;;;;;;;;;;;19.87;54.89;100239.41;2347190;74;51635;-73
2023/03/22 10:37:23;;;;;;;;;;;;;;;19.86;54.96;100239.59;2329434;75;50684;-72
2023/03/22 10:40:26;;;;;;;;;;;;;;;19.86;54.98;100226.17;2308856;76;50649;-74
2023/03/22 10:43:32;;;;;;;;;;;;;;;19.85;54.94;100229.91;2311822;77;51484;-74
2023/03/22 10:46:35;;;;;;;;;;;;;;;19.85;54.94;100218.64;2339523;76;51507;-74
2023/03/22 10:49:41;;;;;;;;;;;;;;;19.86;54.91;100212.75;2348633;74;51402;-74
2023/03/22 10:52:44;;;;;;;;;;;;;;;19.83;54.97;100206.45;2317822;76;51231;-73
2023/03/22 10:55:46;;;;;;;;;;;;;;;19.82;54.99;100203.47;2347104;76;50329;-72
2023/03/22 10:58:48;;;;;;;;;;;;;;;19.83;54.95;100202.42;2347604;76;50634;-73
2023/03/22 11:01:49;;;;;;;;;;;;;;;19.82;54.95;100198.09;2318484;75;50027;-73
2023/03/22 11:04:52;;;;;;;;;;;;;;;19.82;54.97;100190.04;2255834;77;51102;-74
2023/03/22 11:07:54;;;;;;;;;;;;;;;19.80;54.94;100188.36;2291629;76;51597;-74
2023/03/22 11:10:59;;;;;;;;;;;;;;;19.80;54.93;100181.66;2312935;77;50352;-74
2023/03/22 11:14:06;;;;;;;;;;;;;;;19.84;54.88;100186.13;2313893;77;22460;-73
2023/03/22 11:17:09;;;;;;;;;;;;;;;19.85;54.84;100190.45;2282663;77;52595;-73
2023/03/22 11:20:12;;;;;;;;;;;;;;;19.82;54.91;100174.75;2314057;75;51499;-74
2023/03/22 11:23:16;;;;;;;;;;;;;;;19.82;54.88;100173.94;2313755;75;50822;-73
2023/03/22 11:26:17;;;;;;;;;;;;;;;19.81;55.71;100179.83;2283182;77;22385;-73
2023/03/22 11:29:19;;;;;;;;;;;;;;;19.79;56.68;100177.33;2257802;77;51145;-73
2023/03/22 11:32:21;;;;;;;;;;;;;;;19.81;55.49;100185.19;2314081;77;50840;-73
2023/03/22 11:35:28;;;;;;;;;;;;;;;19.78;56.18;100173.48;2313831;75;50291;-74
2023/03/22 11:38:31;;;;;;;;;;;;;;;19.78;56.87;100181.55;2319850;76;22246;-74
2023/03/22 11:41:36;;;;;;;;;;;;;;;19.81;55.91;100181.16;2311756;76;51466;-74
2023/03/22 11:44:38;;;;;;;;;;;;;;;19.78;56.61;100170.80;2280845;77;50526;-73
2023/03/22 11:47:39;;;;;;;;;;;;;;;19.77;56.46;100175.35;2312226;76;50615;-73
2023/03/22 11:50:41;;;;;;;;;;;;;;;19.74;56.77;100169.05;2312028;77;50451;-72
2023/03/22 11:53:44;;;;;;;;;;;;;;;19.72;57.38;100179.16;2280193;77;52459;-73
2023/03/22 11:56:46;;;;;;;;;;;;;;;19.74;56.60;100169.05;2312036;77;50359;-73
2023/03/22 11:59:55;;;;;;;;;;;;;;;19.74;56.44;100169.05;2312239;77;51504;-73
2023/03/22 12:02:58;;;;;;;;;;;;;;;19.75;56.61;100162.64;2312277;77;50655;-73
2023/03/22 12:06:03;;;;;;;;;;;;;;;19.77;56.30;100145.83;2312214;77;51487;-74
2023/03/22 12:09:06;;;;;;;;;;;;;;;19.79;56.43;100151.83;2339570;76;51350;-73
2023/03/22 12:12:09;;;;;;;;;;;;;;;19.82;56.08;100141.19;2347580;75;50324;-73
2023/03/22 12:15:20;;;;;;;;;;;;;;;19.83;56.04;100136.64;2347438;76;49989;-72
2023/03/22 12:18:24;;;;;;;;;;;;;;;19.82;55.95;100141.72;2318073;76;51211;-73
2023/03/22 12:21:26;;;;;;;;;;;;;;;19.82;55.91;100141.72;2347632;74;50432;-73
2023/03/22 12:24:28;;;;;;;;;;;;;;;19.80;56.11;100146.75;2347371;76;50474;-73
2023/03/22 12:27:33;;;;;;;;;;;;;;;19.79;56.07;100137.05;2347656;76;51515;-72
2023/03/22 12:30:45;;;;;;;;;;;;;;;19.81;55.96;100128.81;2318046;76;51211;-73
2023/03/22 12:33:48;;;;;;;;;;;;;;;19.79;56.09;100130.34;2347383;74;50289;-73
2023/03/22 12:36:54;;;;;;;;;;;;;;;19.80;55.94;100119.91;2329864;76;50688;-73
2023/03/22 12:40:04;;;;;;;;;;;;;;;19.79;56.25;100114.77;2321960;75;51651;-74
2023/03/22 12:43:20;;;;;;;;;;;;;;;19.76;56.35;100109.80;2280917;77;51736;-73
2023/03/22 12:46:23;;;;;;;;;;;;;;;19.76;56.33;100103.09;2312167;77;50825;-73
2023/03/22 12:49:27;;;;;;;;;;;;;;;19.74;56.77;100099.78;2312482;77;51594;-74
2023/03/22 12:52:36;;;;;;;;;;;;;;;19.72;56.74;100099.97;2312584;77;50706;-72
2023/03/22 12:55:38;;;;;;;;;;;;;;;19.69;56.98;100096.36;2281582;77;50149;-73
2023/03/22 12:58:40;;;;;;;;;;;;;;;19.71;56.81;100092.14;2317385;77;50631;-73
2023/03/22 13:01:45;;;;;;;;;;;;;;;19.70;56.71;100081.89;2313889;77;50762;-74
2023/03/22 13:04:52;;;;;;;;;;;;;;;19.69;56.89;100080.77;2312468;77;50840;-73
2023/03/22 13:07:53;;;;;;;;;;;;;;;19.71;56.60;100081.41;2306483;77;50796;-73
2023/03/22 13:11:02;;;;;;;;;;;;;;;19.73;56.58;100075.30;2315790;76;50702;-74
2023/03/22 13:14:03;;;;;;;;;;;;;;;19.73;56.52;100081.52;2314770;77;51645;-72
2023/03/22 13:17:06;;;;;;;;;;;;;;;19.74;56.48;100079.12;2313160;77;51530;-73
2023/03/22 13:20:13;;;;;;;;;;;;;;;19.73;56.69;100080.17;2313042;77;51464;-73
2023/03/22 13:23:16;;;;;;;;;;;;;;;19.68;56.78;100084.47;2315488;77;51587;-73
2023/03/22 13:26:18;;;;;;;;;;;;;;;19.66;56.91;100091.37;2314725;76;50750;-73
2023/03/22 13:29:23;;;;;;;;;;;;;;;19.69;56.70;100080.77;2312582;77;50695;-74
2023/03/22 13:32:27;;;;;;;;;;;;;;;19.67;56.83;100076.94;2281074;77;51245;-72
2023/03/22 13:35:49;;;;;;;;;;;;;;;19.66;56.97;100081.98;2312137;76;51490;-73
2023/03/22 13:38:55;;;;;;;;;;;;;;;19.67;56.89;100080.14;2339427;74;50654;-74
2023/03/22 13:42:01;;;;;;;;;;;;;;;19.71;56.50;100070.14;2347629;75;50318;-73
2023/03/22 13:45:03;;;;;;;;;;;;;;;19.72;56.51;100069.62;2318189;76;52597;-73
2023/03/22 13:48:12;;;;;;;;;;;;;;;19.76;56.37;100071.70;2318007;76;50748;-73
2023/03/22 13:51:17;;;;;;;;;;;;;;;19.76;56.43;100059.62;2347602;75;50300;-73
2023/03/22 13:54:22;;;;;;;;;;;;;;;19.77;56.39;100071.18;2347431;76;51443;-73
2023/03/22 13:57:40;;;;;;;;;;;;;;;19.78;56.30;100068.80;2347898;76;22729;-73
2023/03/22 14:00:43;;;;;;;;;;;;;;;19.73;56.56;100068.09;2252931;77;51513;-73
2023/03/22 14:03:46;;;;;;;;;;;;;;;19.73;56.50;100057.35;2252876;79;52777;-73
2023/03/22 14:06:49;;;;;;;;;;;;;;;19.73;56.33;100058.70;2253548;78;51595;-72
2023/03/22 14:10:08;;;;;;;;;;;;;;;19.75;56.38;100047.73;2196156;80;51470;-73
2023/03/22 14:13:17;;;;;;;;;;;;;;;19.71;56.44;100045.98;2222017;80;50665;-73
2023/03/22 14:16:28;;;;;;;;;;;;;;;19.72;56.25;100044.94;2222077;78;51543;-73
2023/03/22 14:19:33;;;;;;;;;;;;;;;19.70;56.56;100038.13;2221984;80;50252;-73
2023/03/22 14:22:37;;;;;;;;;;;;;;;19.76;56.18;100042.17;2222043;79;52627;-72
2023/03/22 14:25:38;;;;;;;;;;;;;;;19.80;56.00;100035.34;2222118;80;50825;-72
2023/03/22 14:28:40;;;;;;;;;;;;;;;19.83;55.96;100031.94;2222389;80;51435;-71
2023/03/22 14:31:42;;;;;;;;;;;;;;;19.82;56.03;100036.49;2196820;80;50401;-73
2023/03/22 14:34:44;;;;;;;;;;;;;;;19.80;56.14;100033.18;2257055;77;52616;-72
2023/03/22 14:37:47;;;;;;;;;;;;;;;19.80;56.27;100039.89;2263040;76;50666;-72
2023/03/22 14:40:48;;;;;;;;;;;;;;;19.78;56.33;100037.44;2347599;75;51537;-74
2023/03/22 14:43:50;;;;;;;;;;;;;;;19.79;56.23;100035.05;2347407;76;51565;-73
2023/03/22 14:46:54;;;;;;;;;;;;;;;19.79;56.20;100030.20;2317929;76;51600;-73
2023/03/22 14:49:56;;;;;;;;;;;;;;;19.76;56.31;100029.27;2346400;76;51512;-72
2023/03/22 14:52:57;;;;;;;;;;;;;;;19.75;56.22;100027.08;2347744;75;50062;-72
2023/03/22 14:55:59;;;;;;;;;;;;;;;19.75;56.39;100032.45;2347702;75;50908;-73
2023/03/22 14:59:02;;;;;;;;;;;;;;;19.74;56.19;100028.65;2291950;76;52467;-73
2023/03/22 15:02:05;;;;;;;;;;;;;;;19.74;56.29;100036.70;2318200;76;51638;-73
2023/03/22 15:05:08;;;;;;;;;;;;;;;19.74;56.24;100037.52;2343194;76;50810;-73
2023/03/22 15:08:11;;;;;;;;;;;;;;;19.72;56.41;100028.02;2313120;75;51605;-73
2023/03/22 15:11:12;;;;;;;;;;;;;;;19.70;56.33;100022.84;2280721;77;49293;-72
2023/03/22 15:14:14;;;;;;;;;;;;;;;19.69;56.27;100025.23;2311875;77;50791;-73
2023/03/22 15:17:16;;;;;;;;;;;;;;;19.69;56.23;100021.20;2312108;77;50327;-73
2023/03/22 15:20:19;;;;;;;;;;;;;;;19.68;56.38;100021.40;2312214;77;51515;-73
2023/03/22 15:23:22;;;;;;;;;;;;;;;19.67;56.32;100016.55;2312000;77;50737;-73
2023/03/22 15:26:27;;;;;;;;;;;;;;;19.64;56.40;100010.23;2312185;77;51596;-73
2023/03/22 15:29:35;;;;;;;;;;;;;;;19.59;56.47;100018.06;2312088;77;50294;-73
2023/03/22 15:32:32;;;;;;;;;;;;;;;19.56;56.56;100009.91;2311917;77;22319;-73
2023/03/22 15:35:34;;;;;;;;;;;;;;;19.55;56.53;100006.93;2280254;77;49631;-73
2023/03/22 15:38:38;;;;;;;;;;;;;;;19.50;56.58;100006.72;2333831;76;51497;-72
2023/03/22 15:41:40;;;;;;;;;;;;;;;19.50;56.55;100004.55;2347410;74;50245;-74